Happy Valley, North Carolina
Current Conditions -  °F | °C
As of 8:35 PM on Friday 19 Dec 2014 (Local Time) from KMRN Reporting Station
Clear Clear  
Wind Chill: 40°   Ceiling: Unl
Heat Index: 40°   Visibility: 10mi
Dew Point: 32°   Wind: 3mph
Humidity: 73%   Direction: 360°N
Pressure: 30.2"   Gusts: NA
Location:  35.9886°N, 81.5588°W
Report Text: KMRN 200135Z AUTO 36003KT 10SM CLR 05/00 A3020 RMK AO2 T00470002
Loading
Personal Weather Stations






























Interactive Weather Map New forecast layout! Learn more

10-Day Weather Forecast

Advertisements
Track Severe Weather on mobile